createdAt,value
2019-04-28T00:01:15.849Z,1014.5
2019-04-28T00:06:23.605Z,1014.5
2019-04-28T00:11:28.964Z,1014.6
2019-04-28T00:16:34.647Z,1014.6
2019-04-28T00:21:41.283Z,1014.7
2019-04-28T00:26:46.695Z,1014.6
2019-04-28T00:31:53.072Z,1014.7
2019-04-28T00:36:57.967Z,1014.7
2019-04-28T00:42:06.368Z,1014.8
2019-04-28T00:47:13.289Z,1014.8
2019-04-28T00:52:19.042Z,1014.8
2019-04-28T00:57:23.930Z,1014.8
2019-04-28T01:02:43.790Z,1014.8
2019-04-28T01:07:57.698Z,1014.7
2019-04-28T01:13:05.456Z,1014.7
2019-04-28T01:18:12.703Z,1014.8
2019-04-28T01:23:17.581Z,1014.8
2019-04-28T01:28:24.501Z,1014.9
2019-04-28T01:33:31.290Z,1014.9
2019-04-28T01:38:36.979Z,1015
2019-04-28T01:43:43.953Z,1015.1
2019-04-28T01:48:49.883Z,1015.1
2019-04-28T01:53:55.592Z,1015.2
2019-04-28T01:59:02.534Z,1015.1
2019-04-28T02:04:07.666Z,1015.2
2019-04-28T02:09:13.105Z,1015.2
2019-04-28T02:14:20.036Z,1015.2
2019-04-28T02:19:25.195Z,1015.2
2019-04-28T02:24:32.537Z,1015.2
2019-04-28T02:29:37.396Z,1015.3
2019-04-28T02:34:44.216Z,1015.3
2019-04-28T02:39:52.259Z,1015.2
2019-04-28T02:45:00.192Z,1015.2
2019-04-28T02:50:05.955Z,1015.3
2019-04-28T02:55:13.917Z,1015.3
2019-04-28T03:00:21.133Z,1015.4
2019-04-28T03:05:26.684Z,1015.4
2019-04-28T03:10:34.408Z,1015.4
2019-04-28T03:15:42.520Z,1015.5
2019-04-28T03:20:47.937Z,1015.6
2019-04-28T03:25:53.894Z,1015.6
2019-04-28T03:31:36.294Z,1015.6
2019-04-28T03:36:45.429Z,1015.6
2019-04-28T03:41:52.545Z,1015.6
2019-04-28T03:47:00.675Z,1015.7
2019-04-28T03:52:11.078Z,1015.7
2019-04-28T03:57:16.207Z,1015.7
2019-04-28T04:02:26.212Z,1015.7
2019-04-28T04:07:33.952Z,1015.8
2019-04-28T04:12:42.036Z,1015.8
2019-04-28T04:17:47.737Z,1015.7
2019-04-28T04:22:54.479Z,1015.7
2019-04-28T04:28:05.955Z,1015.8
2019-04-28T04:33:14.083Z,1015.9
2019-04-28T04:38:21.692Z,1015.9
2019-04-28T04:43:26.489Z,1015.8
2019-04-28T04:48:33.443Z,1015.8
2019-04-28T04:53:41.226Z,1015.9
2019-04-28T04:58:46.357Z,1016
2019-04-28T05:03:52.709Z,1016.1
2019-04-28T05:08:57.552Z,1016.2
2019-04-28T05:14:02.684Z,1016.3
2019-04-28T05:19:07.531Z,1016.3
2019-04-28T05:24:21.502Z,1016.4
2019-04-28T05:29:31.841Z,1016.5
2019-04-28T05:34:47.943Z,1016.5
2019-04-28T05:39:55.547Z,1016.6
2019-04-28T05:45:02.547Z,1016.6
2019-04-28T05:50:07.961Z,1016.7
2019-04-28T05:55:13.090Z,1016.7
2019-04-28T06:00:20.895Z,1016.8
2019-04-28T06:05:26.023Z,1016.8
2019-04-28T06:10:32.270Z,1016.8
2019-04-28T06:15:37.179Z,1016.8
2019-04-28T06:20:43.374Z,1016.9
2019-04-28T06:25:48.788Z,1016.9
2019-04-28T06:30:53.644Z,1017
2019-04-28T06:35:58.228Z,1017.1
2019-04-28T06:41:03.638Z,1017.1
2019-04-28T06:46:08.491Z,1017.2
2019-04-28T06:51:13.069Z,1017.3
2019-04-28T06:56:18.216Z,1017.3
2019-04-28T07:01:23.350Z,1017.4
2019-04-28T07:06:27.923Z,1017.5
2019-04-28T07:11:33.068Z,1017.5
2019-04-28T07:16:38.484Z,1017.5
2019-04-28T07:21:43.620Z,1017.5
2019-04-28T07:26:48.209Z,1017.6
2019-04-28T07:31:53.365Z,1017.7
2019-04-28T07:36:58.797Z,1017.8
2019-04-28T07:42:03.939Z,1017.7
2019-04-28T07:47:09.622Z,1017.8
2019-04-28T07:52:14.474Z,1017.9
2019-04-28T07:57:19.886Z,1018
2019-04-28T08:02:25.576Z,1018
2019-04-28T08:07:30.713Z,1017.9
2019-04-28T08:12:36.408Z,1018
2019-04-28T08:17:41.259Z,1018
2019-04-28T08:22:46.953Z,1018.2
2019-04-28T08:27:52.368Z,1018.3
2019-04-28T08:32:57.778Z,1018.3
2019-04-28T08:38:02.629Z,1018.4
2019-04-28T08:43:08.043Z,1018.6
2019-04-28T08:48:13.189Z,1018.7
2019-04-28T08:53:18.603Z,1018.8
2019-04-28T08:58:23.462Z,1018.8
2019-04-28T09:03:28.874Z,1018.9
2019-04-28T09:08:34.280Z,1018.9
2019-04-28T09:13:39.421Z,1019
2019-04-28T09:18:44.842Z,1019.2
2019-04-28T09:23:49.980Z,1019.2
2019-04-28T09:28:55.399Z,1019.2
2019-04-28T09:33:59.709Z,1019.2
2019-04-28T09:39:04.842Z,1019.1
2019-04-28T09:44:10.253Z,1019.1
2019-04-28T09:49:15.667Z,1019.2
2019-04-28T09:54:20.826Z,1019.3
2019-04-28T09:59:25.963Z,1019.3
2019-04-28T10:04:44.212Z,1019.4
2019-04-28T10:09:49.102Z,1019.4
2019-04-28T10:14:54.523Z,1019.5
2019-04-28T10:20:00.217Z,1019.5
2019-04-28T10:25:05.906Z,1019.6
2019-04-28T10:30:11.317Z,1019.5
2019-04-28T10:35:17.015Z,1019.5
2019-04-28T10:40:22.710Z,1019.6
2019-04-28T10:45:28.131Z,1019.6
2019-04-28T10:50:33.550Z,1019.6
2019-04-28T10:55:38.691Z,1019.6
2019-04-28T11:00:44.108Z,1019.7
2019-04-28T11:05:48.972Z,1019.8
2019-04-28T11:10:54.112Z,1019.9
2019-04-28T11:15:59.254Z,1019.9
2019-04-28T11:21:04.393Z,1020
2019-04-28T11:26:09.255Z,1020
2019-04-28T11:31:14.119Z,1020
2019-04-28T11:36:18.989Z,1020
2019-04-28T11:41:24.694Z,1019.9
2019-04-28T11:46:29.555Z,1019.9
2019-04-28T11:51:34.700Z,1020
2019-04-28T11:56:44.439Z,1020
2019-04-28T12:01:49.303Z,1020.1
2019-04-28T12:06:54.442Z,1020.1
2019-04-28T12:11:59.308Z,1020.1
2019-04-28T12:17:04.735Z,1020.1
2019-04-28T12:22:10.170Z,1020.1
2019-04-28T12:27:15.597Z,1020.2
2019-04-28T12:32:21.030Z,1020.1
2019-04-28T12:37:26.182Z,1020.2
2019-04-28T12:42:31.332Z,1020.3
2019-04-28T12:47:36.765Z,1020.3
2019-04-28T12:52:42.196Z,1020.4
2019-04-28T12:57:47.355Z,1020.4
2019-04-28T13:02:52.779Z,1020.4
2019-04-28T13:07:57.943Z,1020.4
2019-04-28T13:13:03.101Z,1020.4
2019-04-28T13:18:08.264Z,1020.5
2019-04-28T13:23:12.917Z,1020.5
2019-04-28T13:28:17.801Z,1020.6
2019-04-28T13:33:23.269Z,1020.6
2019-04-28T13:38:28.223Z,1020.6
2019-04-28T13:43:33.590Z,1020.7
2019-04-28T13:48:39.018Z,1020.6
2019-04-28T13:53:44.188Z,1020.7
2019-04-28T13:58:49.642Z,1020.6
2019-04-28T14:03:55.359Z,1020.6
2019-04-28T14:09:00.379Z,1020.6
2019-04-28T14:14:05.549Z,1020.7
2019-04-28T14:19:10.994Z,1020.7
2019-04-28T14:24:15.884Z,1020.6
2019-04-28T14:29:21.133Z,1020.6
2019-04-28T14:34:26.858Z,1020.6
2019-04-28T14:39:32.319Z,1020.6
2019-04-28T14:44:37.862Z,1020.6
2019-04-28T14:49:43.591Z,1020.6
2019-04-28T14:54:48.735Z,1020.6
2019-04-28T15:00:26.356Z,1020.6
2019-04-28T15:05:31.525Z,1020.7
2019-04-28T15:10:37.366Z,1020.6
2019-04-28T15:15:42.455Z,1020.7
2019-04-28T15:20:47.635Z,1020.7
2019-04-28T15:25:52.817Z,1020.7
2019-04-28T15:30:58.001Z,1020.8
2019-04-28T15:36:03.168Z,1020.8
2019-04-28T15:41:23.397Z,1020.8
2019-04-28T15:46:28.564Z,1020.9
2019-04-28T15:51:33.450Z,1020.9
2019-04-28T15:56:38.330Z,1021
2019-04-28T16:01:44.044Z,1021
2019-04-28T16:06:49.765Z,1021
2019-04-28T16:11:55.196Z,1021
2019-04-28T16:17:00.080Z,1021
2019-04-28T16:22:05.520Z,1021
2019-04-28T16:27:11.235Z,1021.1
2019-04-28T16:32:16.397Z,1021.1
2019-04-28T16:37:21.837Z,1021
2019-04-28T16:42:27.290Z,1021.1
2019-04-28T16:47:32.462Z,1021.1
2019-04-28T16:52:36.775Z,1021.2
2019-04-28T16:57:42.224Z,1021.2
2019-04-28T17:02:46.552Z,1021.3
2019-04-28T17:07:55.695Z,1021.4
2019-04-28T17:13:00.848Z,1021.5
2019-04-28T17:18:05.729Z,1021.5
2019-04-28T17:23:11.164Z,1021.5
2019-04-28T17:28:16.647Z,1021.5
2019-04-28T17:33:22.090Z,1021.6
2019-04-28T17:38:26.962Z,1021.6
2019-04-28T17:43:32.116Z,1021.7
2019-04-28T17:48:37.270Z,1021.8
2019-04-28T17:53:42.418Z,1021.8
2019-04-28T17:58:47.570Z,1021.8
2019-04-28T18:03:52.445Z,1021.8
2019-04-28T18:08:57.318Z,1021.8
2019-04-28T18:14:05.881Z,1021.8
2019-04-28T18:19:11.026Z,1021.9
2019-04-28T18:24:16.177Z,1022
2019-04-28T18:29:21.318Z,1022.1
2019-04-28T18:34:26.740Z,1022.2
2019-04-28T18:39:31.615Z,1022.1
2019-04-28T18:44:36.749Z,1022.2
2019-04-28T18:49:41.898Z,1022.4
2019-04-28T18:54:47.038Z,1022.4
2019-04-28T18:59:51.907Z,1022.5
2019-04-28T19:04:56.770Z,1022.5
2019-04-28T19:10:02.191Z,1022.6
2019-04-28T19:15:07.059Z,1022.6
2019-04-28T19:20:15.181Z,1022.7
2019-04-28T19:25:20.877Z,1022.7
2019-04-28T19:30:25.762Z,1022.7
2019-04-28T19:35:30.885Z,1022.7
2019-04-28T19:40:36.297Z,1022.8
2019-04-28T19:45:41.435Z,1022.8
2019-04-28T19:50:46.576Z,1022.8
2019-04-28T19:55:51.702Z,1022.9
2019-04-28T20:00:57.118Z,1022.9
2019-04-28T20:06:02.531Z,1022.9
2019-04-28T20:11:07.392Z,1022.9
2019-04-28T20:16:12.816Z,1022.9
2019-04-28T20:21:17.676Z,1022.9
2019-04-28T20:26:22.529Z,1023.1
2019-04-28T20:31:27.382Z,1023.2
2019-04-28T20:36:35.268Z,1023.2
2019-04-28T20:41:40.676Z,1023.3
2019-04-28T20:46:45.249Z,1023.3
2019-04-28T20:51:50.097Z,1023.3
2019-04-28T20:56:55.231Z,1023.4
2019-04-28T21:02:00.637Z,1023.5
2019-04-28T21:07:05.760Z,1023.5
2019-04-28T21:12:11.175Z,1023.5
2019-04-28T21:17:16.686Z,1023.5
2019-04-28T21:22:21.584Z,1023.6
2019-04-28T21:27:26.437Z,1023.7
2019-04-28T21:32:31.392Z,1023.7
2019-04-28T21:37:36.366Z,1023.7
2019-04-28T21:42:41.497Z,1023.7
2019-04-28T21:47:46.624Z,1023.7
2019-04-28T21:52:52.043Z,1023.7
2019-04-28T21:57:57.725Z,1023.7
2019-04-28T22:03:02.852Z,1023.8
2019-04-28T22:08:07.975Z,1023.8
2019-04-28T22:13:13.657Z,1023.9
2019-04-28T22:18:19.335Z,1023.9
2019-04-28T22:23:24.179Z,1023.9
2019-04-28T22:28:29.576Z,1023.9
2019-04-28T22:33:34.991Z,1023.9
2019-04-28T22:38:40.108Z,1024
2019-04-28T22:43:45.508Z,1023.9
2019-04-28T22:48:50.627Z,1023.9
2019-04-28T22:53:56.306Z,1023.9
2019-04-28T22:59:01.148Z,1023.9
2019-04-28T23:04:05.993Z,1024
2019-04-28T23:09:10.841Z,1023.9
2019-04-28T23:14:16.513Z,1023.9
2019-04-28T23:19:21.630Z,1024
2019-04-28T23:24:26.468Z,1023.9
2019-04-28T23:29:33.817Z,1023.9
2019-04-28T23:34:38.936Z,1023.9
2019-04-28T23:39:43.786Z,1023.9
2019-04-28T23:44:48.900Z,1023.9
2019-04-28T23:49:54.020Z,1023.9
2019-04-28T23:54:59.414Z,1023.9
